Time;durP1;ratioP1;P1;durP2;ratioP2;P2;SDS_P1;SDS_P2;PMS_P1;PMS_P2;Temp;Humidity;BMP_temperature;BMP_pressure;BME280_temperature;BME280_humidity;BME280_pressure;Samples;Min_cycle;Max_cycle;Signal;HPM_P1;HPM_P2
2022/01/13 00:01:35;;;;;;;11.50;5.50;;;;;;;4.75;42.43;102559.19;5077328;28;20051;-79
2022/01/13 00:04:19;;;;;;;29.88;10.98;;;;;;;4.60;42.83;102565.00;5099595;28;20055;-78
2022/01/13 00:07:05;;;;;;;17.27;7.70;;;;;;;4.80;42.43;102553.09;5094877;28;20051;-78
2022/01/13 00:09:50;;;;;;;16.38;7.65;;;;;;;4.94;42.13;102559.91;5096395;28;20043;-78
2022/01/13 00:12:39;;;;;;;16.03;6.50;;;;;;;4.89;43.07;102554.41;5071632;28;20405;-78
2022/01/13 00:15:40;;;;;;;17.95;6.38;;;;;;;4.95;41.44;102551.59;5080136;28;20044;-77
2022/01/13 00:18:49;;;;;;;9.95;5.22;;;;;;;4.82;41.82;102556.41;5070817;28;20047;-78
2022/01/13 00:21:40;;;;;;;14.60;6.20;;;;;;;4.89;41.96;102563.31;5081427;28;20048;-78
2022/01/13 00:24:25;;;;;;;9.43;5.00;;;;;;;4.85;42.49;102572.91;5062569;28;20048;-78
2022/01/13 00:27:14;;;;;;;11.23;5.25;;;;;;;4.96;42.28;102574.81;5085666;28;20044;-78
2022/01/13 00:30:01;;;;;;;13.10;5.45;;;;;;;4.53;42.95;102574.22;5083760;28;20052;-78
2022/01/13 00:32:46;;;;;;;17.45;9.38;;;;;;;4.48;42.18;102576.78;5090759;28;20055;-78
2022/01/13 00:35:31;;;;;;;19.95;9.13;;;;;;;4.25;42.45;102570.28;5071101;28;20060;-78
2022/01/13 00:38:15;;;;;;;37.60;14.20;;;;;;;4.39;42.02;102573.59;5072856;28;20048;-80
2022/01/13 00:41:00;;;;;;;24.30;11.43;;;;;;;4.46;41.90;102581.59;5076984;28;20314;-78
2022/01/13 00:43:47;;;;;;;20.05;7.70;;;;;;;4.42;41.86;102583.09;5083367;28;20047;-80
2022/01/13 00:46:43;;;;;;;25.77;9.00;;;;;;;4.24;41.56;102582.09;5081704;28;20055;-79
2022/01/13 00:49:28;;;;;;;18.55;8.70;;;;;;;4.00;42.89;102590.25;5071126;28;20121;-80
2022/01/13 00:52:14;;;;;;;11.38;4.30;;;;;;;4.05;43.80;102593.94;5069945;28;20089;-80
2022/01/13 00:55:03;;;;;;;8.88;4.65;;;;;;;4.18;44.24;102595.63;5085852;28;20035;-80
2022/01/13 00:57:48;;;;;;;21.95;8.82;;;;;;;4.11;42.72;102603.81;5072801;28;20043;-80
2022/01/13 01:00:33;;;;;;;15.77;6.68;;;;;;;4.09;44.34;102611.25;5075499;28;20056;-81
2022/01/13 01:03:18;;;;;;;13.25;6.30;;;;;;;3.99;45.08;102610.97;5078780;28;20043;-80
2022/01/13 01:06:05;;;;;;;8.57;5.32;;;;;;;3.95;44.94;102625.94;5076103;28;20428;-79
2022/01/13 01:08:49;;;;;;;7.65;4.68;;;;;;;3.75;44.57;102626.16;5072604;28;20052;-80
2022/01/13 01:11:35;;;;;;;7.88;4.63;;;;;;;3.96;45.00;102619.50;5082408;28;20043;-80
2022/01/13 01:14:20;;;;;;;12.60;7.60;;;;;;;3.94;44.79;102626.97;5079695;28;20051;-80
2022/01/13 01:17:05;;;;;;;10.70;6.22;;;;;;;3.81;45.26;102635.16;5080693;28;20063;-80
2022/01/13 01:19:51;;;;;;;9.30;5.20;;;;;;;3.79;45.14;102630.03;5072623;28;20055;-79
2022/01/13 01:23:24;;;;;;;9.20;4.53;;;;;;;3.86;44.36;102616.47;5074813;28;20055;-80
2022/01/13 01:26:09;;;;;;;7.93;4.60;;;;;;;3.76;44.48;102633.16;5057117;28;20523;-80
2022/01/13 01:31:52;;;;;;;8.77;4.50;;;;;;;3.68;45.12;102636.13;5078834;28;20043;-79
2022/01/13 01:34:56;;;;;;;6.25;3.70;;;;;;;3.90;43.73;102639.22;5069335;28;20044;-80
2022/01/13 01:37:43;;;;;;;9.82;4.15;;;;;;;3.84;43.15;102640.13;5071441;28;20047;-79
2022/01/13 01:40:28;;;;;;;7.88;5.03;;;;;;;3.78;43.71;102646.38;5072013;28;20051;-80
2022/01/13 01:43:12;;;;;;;7.57;3.23;;;;;;;3.84;43.73;102640.94;5073654;28;20119;-80
2022/01/13 01:45:59;;;;;;;8.50;4.38;;;;;;;3.89;45.27;102642.97;5071612;28;20302;-79
2022/01/13 01:48:44;;;;;;;9.68;4.72;;;;;;;4.15;45.01;102648.06;5067884;28;20040;-79
2022/01/13 01:51:30;;;;;;;9.68;4.63;;;;;;;4.34;43.93;102656.94;5066550;28;20167;-80
2022/01/13 01:54:15;;;;;;;6.10;2.97;;;;;;;4.00;43.16;102660.25;5076310;28;20900;-80
2022/01/13 01:56:59;;;;;;;7.88;3.65;;;;;;;3.84;42.93;102675.09;5073588;28;20120;-80
2022/01/13 01:59:45;;;;;;;6.38;3.08;;;;;;;3.78;42.93;102684.06;5081736;28;20536;-80
2022/01/13 02:02:30;;;;;;;7.60;4.20;;;;;;;3.78;43.35;102678.66;5080834;28;20175;-80
2022/01/13 02:05:15;;;;;;;9.10;4.78;;;;;;;3.42;42.75;102679.41;5099034;28;20059;-79
2022/01/13 02:08:01;;;;;;;7.28;3.28;;;;;;;3.63;43.55;102680.88;5075166;28;20044;-79
2022/01/13 02:10:46;;;;;;;12.90;3.63;;;;;;;3.64;43.00;102683.34;5077992;28;20051;-80
2022/01/13 02:13:34;;;;;;;9.48;3.72;;;;;;;3.41;42.65;102683.94;5083109;28;20555;-80
2022/01/13 02:19:39;;;;;;;10.48;3.88;;;;;;;3.41;43.22;102683.94;5049806;28;20047;-80
2022/01/13 02:22:24;;;;;;;13.40;4.75;;;;;;;3.51;43.56;102688.84;5075945;28;20060;-80
2022/01/13 02:25:12;;;;;;;10.15;3.05;;;;;;;3.51;43.46;102680.78;5081653;28;20527;-79
2022/01/13 02:27:57;;;;;;;18.70;5.18;;;;;;;3.59;43.57;102677.00;5078866;28;20059;-79
2022/01/13 02:30:44;;;;;;;6.70;2.50;;;;;;;3.70;42.71;102660.97;5079156;28;20044;-79
2022/01/13 02:33:29;;;;;;;14.82;3.92;;;;;;;3.54;42.46;102655.31;5073842;28;20052;-79
2022/01/13 02:36:18;;;;;;;5.05;2.97;;;;;;;3.68;42.57;102665.72;5084585;28;20515;-80
2022/01/13 02:39:04;;;;;;;7.80;3.58;;;;;;;3.61;42.90;102670.34;5077225;28;20047;-79
2022/01/13 02:41:49;;;;;;;11.43;3.88;;;;;;;3.62;43.57;102679.22;5075471;28;20051;-80
2022/01/13 02:44:38;;;;;;;8.80;3.33;;;;;;;3.56;42.25;102685.47;5095036;28;20055;-79
2022/01/13 02:50:26;;;;;;;13.30;3.78;;;;;;;3.22;43.41;102674.19;5086513;28;20091;-79
2022/01/13 02:53:11;;;;;;;7.80;2.92;;;;;;;3.16;43.41;102680.41;5079938;28;20044;-79
2022/01/13 02:56:01;;;;;;;5.07;3.03;;;;;;;3.51;43.55;102666.50;5074501;28;20043;-79
2022/01/13 02:58:46;;;;;;;13.60;3.85;;;;;;;3.44;43.11;102661.19;5087897;28;20058;-79
2022/01/13 03:01:32;;;;;;;5.07;3.00;;;;;;;3.45;43.03;102662.84;5078439;28;20051;-79
2022/01/13 03:04:17;;;;;;;7.93;3.90;;;;;;;3.34;43.00;102669.75;5082077;28;20048;-80
2022/01/13 03:07:03;;;;;;;5.15;2.90;;;;;;;3.22;43.95;102679.56;5082179;28;20094;-79
2022/01/13 03:09:48;;;;;;;6.90;4.53;;;;;;;3.34;43.41;102668.94;5093763;28;20053;-79
2022/01/13 03:12:36;;;;;;;6.28;3.38;;;;;;;3.13;43.26;102675.50;5088535;28;20048;-79
2022/01/13 03:15:21;;;;;;;13.23;3.97;;;;;;;3.34;43.64;102683.19;5069917;28;20044;-79
2022/01/13 03:18:05;;;;;;;11.53;3.47;;;;;;;3.30;43.28;102678.47;5076976;28;20056;-79
2022/01/13 03:20:50;;;;;;;23.00;4.00;;;;;;;3.45;43.21;102684.34;5085790;28;20301;-79
2022/01/13 03:23:37;;;;;;;20.42;4.10;;;;;;;3.54;42.98;102693.78;5070763;28;20043;-79
2022/01/13 03:26:22;;;;;;;32.70;5.32;;;;;;;3.50;42.97;102692.59;5078890;28;20045;-79
2022/01/13 03:31:55;;;;;;;14.75;4.18;;;;;;;3.20;44.72;102695.06;5070931;28;20401;-79
2022/01/13 03:34:40;;;;;;;7.70;3.50;;;;;;;3.11;46.03;102703.59;5091984;28;20466;-79
2022/01/13 03:37:26;;;;;;;5.68;3.13;;;;;;;3.06;44.64;102708.81;5082680;28;20039;-80
2022/01/13 03:40:11;;;;;;;9.57;4.32;;;;;;;3.25;44.64;102695.25;5073840;28;20047;-80
2022/01/13 03:42:56;;;;;;;6.18;2.92;;;;;;;3.17;43.29;102690.13;5076575;28;20043;-80
2022/01/13 03:45:40;;;;;;;4.18;3.05;;;;;;;3.05;44.33;102693.75;5084912;28;20055;-78
2022/01/13 03:48:25;;;;;;;9.07;2.93;;;;;;;2.90;43.80;102696.69;5072415;28;20040;-79
2022/01/13 03:51:10;;;;;;;4.75;2.53;;;;;;;3.11;44.33;102703.59;5078624;28;20289;-79
2022/01/13 03:54:32;;;;;;;8.63;3.53;;;;;;;3.08;43.48;102717.50;5086111;28;20050;-80
2022/01/13 03:57:35;;;;;;;6.68;3.78;;;;;;;3.09;43.36;102711.91;5082246;28;20057;-79
2022/01/13 04:00:55;;;;;;;5.57;3.05;;;;;;;2.96;43.23;102712.78;5072509;28;20040;-79
2022/01/13 04:03:40;;;;;;;7.35;3.60;;;;;;;2.83;43.81;102698.63;5086046;28;20047;-79
2022/01/13 04:06:34;;;;;;;11.48;3.22;;;;;;;3.01;43.63;102709.47;5079954;28;20048;-79
2022/01/13 04:09:22;;;;;;;8.98;4.03;;;;;;;2.95;43.36;102704.94;5085990;28;20052;-79
2022/01/13 04:12:10;;;;;;;14.15;5.38;;;;;;;3.10;42.51;102710.06;5087171;28;20527;-80
2022/01/13 04:14:58;;;;;;;21.52;3.90;;;;;;;2.98;43.25;102717.97;5083706;28;20536;-79
2022/01/13 04:17:43;;;;;;;20.55;4.15;;;;;;;2.95;43.51;102721.06;5075051;28;20417;-79
2022/01/13 04:20:28;;;;;;;8.18;3.33;;;;;;;3.09;44.46;102716.47;5079451;28;20046;-79
2022/01/13 04:23:12;;;;;;;16.83;3.40;;;;;;;3.22;42.77;102717.19;5084609;28;20044;-80
2022/01/13 04:25:58;;;;;;;8.00;2.90;;;;;;;3.27;44.74;102717.38;5084440;28;20062;-79
2022/01/13 04:28:42;;;;;;;10.50;3.08;;;;;;;3.58;45.73;102726.44;5071328;28;20040;-79
2022/01/13 04:31:27;;;;;;;10.77;3.00;;;;;;;3.63;43.82;102724.75;5074914;28;20600;-79
2022/01/13 04:34:13;;;;;;;5.72;2.63;;;;;;;3.52;43.59;102725.44;5080435;28;20523;-79
2022/01/13 04:36:59;;;;;;;;;;;;;;;3.75;43.38;102728.38;5081177;28;20052;-79
2022/01/13 04:39:43;;;;;;;9.13;3.33;;;;;;;3.35;43.21;102722.47;5100962;28;19913;-79
2022/01/13 04:42:34;;;;;;;7.95;2.83;;;;;;;3.30;44.01;102724.97;5071216;28;20044;-79
2022/01/13 04:45:19;;;;;;;11.05;4.72;;;;;;;3.21;44.14;102731.66;5079304;28;20040;-79
2022/01/13 04:48:05;;;;;;;17.85;7.30;;;;;;;3.07;43.93;102731.97;5090188;28;20048;-78
2022/01/13 04:50:50;;;;;;;15.65;5.05;;;;;;;3.19;45.49;102732.94;5093985;28;20059;-79
2022/01/13 04:53:35;;;;;;;7.25;3.97;;;;;;;3.31;44.47;102736.56;5087815;28;20055;-79
2022/01/13 04:56:32;;;;;;;6.78;4.07;;;;;;;3.43;45.34;102738.34;5091652;28;20039;-80
2022/01/13 04:59:17;;;;;;;10.05;4.38;;;;;;;3.37;46.12;102741.91;5085335;28;20047;-79
2022/01/13 05:02:02;;;;;;;17.88;5.78;;;;;;;2.91;43.83;102739.50;5067038;28;20047;-79
2022/01/13 05:04:47;;;;;;;13.90;3.60;;;;;;;2.72;43.92;102739.59;5077069;28;20051;-79
2022/01/13 05:07:32;;;;;;;11.63;3.40;;;;;;;2.69;44.68;102734.66;5076284;28;20528;-79
2022/01/13 05:10:17;;;;;;;;;;;;;;;2.66;45.23;102725.16;5072530;28;20048;-79
2022/01/13 05:13:07;;;;;;;11.38;4.75;;;;;;;2.95;46.52;102737.19;5076025;28;19917;-79
2022/01/13 05:15:55;;;;;;;14.20;5.18;;;;;;;3.09;44.75;102733.41;5078656;28;20460;-79
2022/01/13 05:18:49;;;;;;;21.85;6.18;;;;;;;2.99;45.13;102725.81;5088026;28;20124;-79
2022/01/13 05:21:55;;;;;;;28.83;4.97;;;;;;;2.91;46.61;102725.22;5075968;28;20047;-79
2022/01/13 05:24:40;;;;;;;14.23;5.03;;;;;;;3.11;45.65;102731.31;5077990;28;20063;-79
2022/01/13 05:27:27;;;;;;;15.63;4.35;;;;;;;3.06;44.66;102727.63;5080212;28;20073;-79
2022/01/13 05:30:15;;;;;;;15.05;5.82;;;;;;;2.77;45.79;102729.84;5076327;28;20063;-79
2022/01/13 05:32:59;;;;;;;19.50;7.43;;;;;;;2.51;45.52;102738.00;5084247;28;20051;-79
2022/01/13 05:35:44;;;;;;;8.07;4.13;;;;;;;2.79;46.46;102732.34;5085978;28;20535;-79
2022/01/13 05:38:29;;;;;;;16.88;5.30;;;;;;;2.96;46.04;102745.03;5081240;28;20043;-79
2022/01/13 05:41:14;;;;;;;15.30;6.57;;;;;;;2.77;45.43;102745.97;5078525;28;20043;-79
2022/01/13 05:44:00;;;;;;;16.63;5.82;;;;;;;3.10;47.43;102745.78;5082806;28;20289;-80
2022/01/13 05:46:44;;;;;;;;;;;;;;;2.98;47.35;102745.66;5099421;28;20048;-79
2022/01/13 05:49:29;;;;;;;13.75;6.80;;;;;;;3.02;45.91;102748.75;5083592;28;19920;-79
2022/01/13 05:52:14;;;;;;;9.70;5.82;;;;;;;2.72;46.15;102753.84;5090356;28;20055;-80
2022/01/13 05:54:59;;;;;;;8.05;5.70;;;;;;;2.61;46.90;102756.34;5085720;28;20043;-79
2022/01/13 05:57:44;;;;;;;14.30;5.82;;;;;;;2.85;48.65;102761.00;5089962;28;20047;-79
2022/01/13 06:00:29;;;;;;;15.35;9.15;;;;;;;2.63;46.75;102752.44;5092163;28;20610;-79
2022/01/13 06:03:14;;;;;;;16.35;6.60;;;;;;;2.72;47.58;102747.63;5084874;28;20044;-80
2022/01/13 06:05:59;;;;;;;12.10;6.93;;;;;;;2.65;47.01;102757.56;5075296;28;20068;-79
2022/01/13 06:08:44;;;;;;;42.25;6.72;;;;;;;2.88;48.04;102760.59;5076118;28;20040;-79
2022/01/13 06:11:37;;;;;;;12.80;6.45;;;;;;;2.65;47.25;102765.63;5067813;28;20424;-78
2022/01/13 06:14:22;;;;;;;18.80;9.10;;;;;;;2.50;47.54;102757.84;5066173;28;20047;-78
2022/01/13 06:17:07;;;;;;;14.20;8.18;;;;;;;2.44;48.17;102774.78;5080764;28;20043;-78
2022/01/13 06:19:54;;;;;;;17.80;7.72;;;;;;;2.41;48.02;102788.63;5085773;28;20523;-78
2022/01/13 06:22:40;;;;;;;26.80;11.88;;;;;;;2.20;48.28;102795.06;5082742;28;20415;-77
2022/01/13 06:25:25;;;;;;;38.72;13.18;;;;;;;2.24;48.50;102798.97;5077050;28;20051;-77
2022/01/13 06:28:09;;;;;;;20.30;8.83;;;;;;;2.43;49.32;102814.25;5092918;28;20046;-77
2022/01/13 06:30:54;;;;;;;17.50;8.23;;;;;;;2.34;48.31;102809.28;5094697;28;20051;-78
2022/01/13 06:33:39;;;;;;;12.85;7.78;;;;;;;2.39;47.65;102813.00;5092251;28;20067;-77
2022/01/13 06:36:24;;;;;;;25.80;9.43;;;;;;;2.40;48.36;102822.72;5095411;28;20052;-77
2022/01/13 06:39:09;;;;;;;20.40;9.05;;;;;;;2.53;50.32;102814.66;5091712;28;20051;-77
2022/01/13 06:41:54;;;;;;;17.98;8.38;;;;;;;2.74;48.38;102816.25;5078357;28;20051;-77
2022/01/13 06:44:39;;;;;;;21.30;7.97;;;;;;;2.65;48.13;102796.00;5069525;28;20047;-78
2022/01/13 06:47:24;;;;;;;;;;;;;;;2.73;48.46;102781.53;5075299;28;20047;-77
2022/01/13 06:50:11;;;;;;;15.30;8.02;;;;;;;2.75;48.70;102779.44;5073455;28;20296;-77
2022/01/13 06:52:56;;;;;;;18.40;8.77;;;;;;;2.90;48.92;102785.38;5076960;28;20072;-77
2022/01/13 06:55:41;;;;;;;18.95;8.55;;;;;;;2.58;48.11;102804.09;5074442;28;20043;-78
2022/01/13 06:58:27;;;;;;;24.67;8.55;;;;;;;2.51;48.46;102816.69;5070786;28;20055;-77
2022/01/13 07:01:11;;;;;;;25.35;11.40;;;;;;;2.37;48.11;102807.03;5076684;28;20302;-78
2022/01/13 07:03:56;;;;;;;16.48;7.50;;;;;;;2.10;48.78;102814.28;5074240;28;20033;-78
2022/01/13 07:06:42;;;;;;;15.82;8.10;;;;;;;2.10;49.87;102824.19;5073552;28;20048;-77
2022/01/13 07:09:27;;;;;;;25.38;10.60;;;;;;;2.11;50.33;102817.78;5076721;28;20048;-77
2022/01/13 07:12:11;;;;;;;19.73;8.02;;;;;;;2.13;49.33;102819.22;5074941;28;20041;-77
2022/01/13 07:14:57;;;;;;;25.85;9.75;;;;;;;2.13;49.92;102839.88;5073333;28;20039;-78
2022/01/13 07:17:42;;;;;;;;;;;;;;;2.42;49.32;102850.19;5075604;28;20044;-77
2022/01/13 07:20:28;;;;;;;38.10;12.52;;;;;;;2.31;49.99;102860.72;5074783;28;19912;-77
2022/01/13 07:23:13;;;;;;;21.13;9.85;;;;;;;2.51;51.35;102840.88;5072453;28;20048;-77
2022/01/13 07:25:58;;;;;;;18.33;8.25;;;;;;;2.53;51.17;102836.13;5050836;28;20048;-77
2022/01/13 07:28:42;;;;;;;21.95;7.97;;;;;;;2.66;50.30;102829.06;5052429;28;20060;-77
2022/01/13 07:31:28;;;;;;;13.50;7.68;;;;;;;2.65;49.18;102833.59;5053230;28;20051;-77
2022/01/13 07:34:13;;;;;;;30.50;11.38;;;;;;;2.67;49.44;102842.28;5051156;28;20059;-77
2022/01/13 07:36:58;;;;;;;20.60;8.48;;;;;;;2.65;49.04;102852.41;5053365;28;20041;-77
2022/01/13 07:39:43;;;;;;;14.55;8.95;;;;;;;2.71;51.02;102856.94;5053851;28;20421;-77
2022/01/13 07:42:28;;;;;;;18.73;8.93;;;;;;;2.68;49.60;102853.84;5051087;28;20051;-78
2022/01/13 07:45:14;;;;;;;;;;;;;;;2.75;49.19;102857.34;5055632;28;20044;-78
2022/01/13 07:48:00;;;;;;;33.30;12.95;;;;;;;2.92;49.59;102869.28;5050719;28;19920;-77
2022/01/13 07:50:46;;;;;;;21.55;8.40;;;;;;;2.78;50.20;102881.09;5053697;28;20037;-77
2022/01/13 07:53:30;;;;;;;;;;;;;;;2.85;51.03;102882.72;5059422;28;20421;-77
2022/01/13 07:56:15;;;;;;;22.42;11.02;;;;;;;2.93;49.92;102879.00;5057395;28;19913;-77
2022/01/13 07:58:59;;;;;;;23.57;10.87;;;;;;;2.91;50.69;102879.22;5055543;28;20037;-77
2022/01/13 08:01:44;;;;;;;23.10;9.60;;;;;;;2.78;51.09;102886.47;5059661;28;20044;-77
2022/01/13 08:04:29;;;;;;;18.33;9.43;;;;;;;2.90;49.98;102892.84;5057472;28;20051;-76
2022/01/13 08:07:13;;;;;;;20.27;9.53;;;;;;;2.92;49.76;102880.88;5055647;28;20423;-77
2022/01/13 08:09:58;;;;;;;14.60;7.93;;;;;;;2.81;49.38;102892.25;5059457;28;20048;-78
2022/01/13 08:12:42;;;;;;;23.37;10.03;;;;;;;3.02;49.37;102893.84;5057620;28;20539;-77
2022/01/13 08:15:28;;;;;;;19.08;9.93;;;;;;;3.16;49.59;102890.06;5056069;28;20505;-77
2022/01/13 08:21:17;;;;;;;28.50;12.30;;;;;;;3.51;50.01;102892.41;5057323;28;20052;-77
2022/01/13 08:24:01;;;;;;;21.08;10.25;;;;;;;3.42;49.88;102902.59;5054834;28;20048;-77
2022/01/13 08:26:46;;;;;;;18.95;9.85;;;;;;;3.49;50.28;102910.63;5059006;28;20048;-77
2022/01/13 08:29:31;;;;;;;24.65;10.88;;;;;;;3.45;51.01;102921.81;5057080;28;20055;-78
2022/01/13 08:32:16;;;;;;;22.17;10.32;;;;;;;3.63;50.29;102928.34;5055376;28;20060;-78
2022/01/13 08:35:00;;;;;;;19.65;9.10;;;;;;;3.52;50.53;102923.66;5059132;28;20048;-78
2022/01/13 08:37:45;;;;;;;24.15;10.68;;;;;;;3.48;50.38;102930.50;5057170;28;20551;-77
2022/01/13 08:40:34;;;;;;;23.75;10.10;;;;;;;3.57;50.46;102921.97;5055127;28;20049;-77
2022/01/13 08:43:21;;;;;;;25.80;12.77;;;;;;;3.61;51.42;102925.03;5058513;28;20064;-78
2022/01/13 08:46:06;;;;;;;23.45;13.43;;;;;;;3.68;51.76;102920.47;5057188;28;20401;-77
2022/01/13 08:48:51;;;;;;;18.65;11.25;;;;;;;3.77;52.02;102927.25;5055085;28;20041;-78
2022/01/13 08:51:36;;;;;;;16.95;8.98;;;;;;;3.76;52.71;102929.09;5059204;28;20045;-78
2022/01/13 08:54:22;;;;;;;20.13;11.88;;;;;;;3.83;52.37;102934.47;5057058;28;20418;-77
2022/01/13 08:57:07;;;;;;;26.30;13.38;;;;;;;3.82;52.70;102943.56;5055036;28;20048;-77
2022/01/13 08:59:52;;;;;;;18.13;9.25;;;;;;;3.76;52.65;102934.50;5059428;28;20513;-78
2022/01/13 09:02:37;;;;;;;16.08;9.18;;;;;;;3.95;54.83;102938.13;5057093;28;20051;-78
2022/01/13 09:05:21;;;;;;;15.63;8.87;;;;;;;3.87;54.12;102924.91;5072782;28;20048;-77
2022/01/13 09:08:07;;;;;;;17.50;9.00;;;;;;;3.88;54.21;102934.63;5073957;28;20060;-77
2022/01/13 09:10:52;;;;;;;26.73;13.27;;;;;;;3.94;53.15;102925.72;5075498;28;20519;-77
2022/01/13 09:13:38;;;;;;;18.73;9.75;;;;;;;4.04;52.65;102931.44;5075054;28;20055;-77
2022/01/13 09:16:28;;;;;;;23.13;12.38;;;;;;;4.10;51.40;102929.75;5064849;28;20040;-78
2022/01/13 09:19:14;;;;;;;31.73;12.73;;;;;;;4.24;50.66;102921.34;5071539;28;20040;-77
2022/01/13 09:22:00;;;;;;;17.55;10.13;;;;;;;4.23;49.40;102924.25;5074663;28;20051;-77
2022/01/13 09:24:45;;;;;;;30.08;12.05;;;;;;;4.33;49.47;102927.28;5078407;28;20048;-77
2022/01/13 09:27:29;;;;;;;16.75;8.82;;;;;;;4.34;50.66;102928.13;5077754;28;20037;-77
2022/01/13 09:30:15;;;;;;;14.60;8.68;;;;;;;4.46;50.34;102929.91;5074933;28;20417;-77
2022/01/13 09:33:00;;;;;;;26.23;9.20;;;;;;;4.56;50.28;102929.41;5072607;28;20064;-76
2022/01/13 09:35:44;;;;;;;16.13;8.50;;;;;;;4.64;50.74;102934.50;5076737;28;20508;-78
2022/01/13 09:38:29;;;;;;;23.92;9.52;;;;;;;4.74;51.92;102942.91;5075058;28;20653;-79
2022/01/13 09:41:15;;;;;;;19.38;9.07;;;;;;;4.83;51.46;102941.56;5072704;28;20067;-77
2022/01/13 09:44:01;;;;;;;;;;;;;;;4.85;50.99;102944.88;5079335;28;20040;-78
2022/01/13 09:46:47;;;;;;;22.58;11.25;;;;;;;4.87;51.05;102953.56;5077508;28;20188;-77
2022/01/13 09:49:32;;;;;;;18.70;11.07;;;;;;;5.04;50.78;102948.41;5074231;28;20044;-77
2022/01/13 09:52:20;;;;;;;15.82;8.88;;;;;;;5.14;50.74;102952.25;5076889;28;20045;-77
2022/01/13 09:55:06;;;;;;;22.42;10.85;;;;;;;5.13;51.02;102955.97;5074838;28;20440;-78
2022/01/13 09:57:52;;;;;;;22.95;11.63;;;;;;;5.25;50.42;102947.16;5068588;28;20036;-78
2022/01/13 10:00:40;;;;;;;;;;;;;;;5.46;50.28;102952.09;5071060;28;20052;-78
2022/01/13 10:03:26;;;;;;;24.50;10.68;;;;;;;5.46;49.54;102944.00;5067610;28;20296;-79
2022/01/13 10:06:15;;;;;;;20.63;11.43;;;;;;;5.59;48.67;102954.63;5070462;28;20033;-79
2022/01/13 10:09:00;;;;;;;21.13;10.30;;;;;;;5.59;47.64;102944.66;5073629;28;20051;-79
2022/01/13 10:11:53;;;;;;;12.68;7.32;;;;;;;5.58;47.30;102944.91;5076338;28;20226;-78
2022/01/13 10:17:23;;;;;;;12.40;5.77;;;;;;;5.85;46.20;102939.94;5077446;28;20045;-78
2022/01/13 10:20:12;;;;;;;8.25;4.47;;;;;;;5.94;45.96;102941.31;5086181;28;20051;-79
2022/01/13 10:23:11;;;;;;;12.93;4.28;;;;;;;5.96;42.84;102942.72;5086784;28;20038;-79
2022/01/13 10:26:08;;;;;;;10.93;4.50;;;;;;;5.93;42.86;102936.97;5077888;28;20051;-79
2022/01/13 10:28:53;;;;;;;6.63;4.03;;;;;;;5.94;42.93;102928.63;5065178;28;20048;-80
2022/01/13 10:31:50;;;;;;;16.45;4.22;;;;;;;6.09;44.02;102935.50;5072806;28;20254;-79
2022/01/13 10:34:38;;;;;;;7.93;4.60;;;;;;;6.27;44.08;102932.72;5071278;28;20116;-79
2022/01/13 10:37:40;;;;;;;9.05;4.78;;;;;;;6.35;43.83;102921.56;5080022;28;20044;-78
2022/01/13 10:40:31;;;;;;;14.30;4.88;;;;;;;6.40;42.98;102924.38;5086870;28;20051;-77
2022/01/13 10:43:21;;;;;;;10.98;4.53;;;;;;;6.37;42.45;102916.75;5073150;28;20051;-78
2022/01/13 10:46:05;;;;;;;14.85;4.55;;;;;;;6.49;42.56;102925.72;5074139;28;20508;-78
2022/01/13 10:49:07;;;;;;;12.35;5.32;;;;;;;6.51;42.65;102923.59;5069983;28;20052;-78
2022/01/13 10:51:52;;;;;;;10.88;4.45;;;;;;;6.60;41.49;102922.19;5062943;28;20040;-78
2022/01/13 10:54:37;;;;;;;8.45;3.92;;;;;;;6.66;41.06;102921.25;5059703;28;20520;-77
2022/01/13 10:57:24;;;;;;;6.27;4.27;;;;;;;6.72;40.89;102916.78;5079273;28;20043;-79
2022/01/13 11:00:22;;;;;;;15.88;7.35;;;;;;;6.74;40.56;102907.38;5071606;28;20063;-79
2022/01/13 11:03:14;;;;;;;11.48;5.60;;;;;;;6.79;39.70;102901.28;5075371;28;20043;-77
2022/01/13 11:06:05;;;;;;;10.95;5.35;;;;;;;6.75;39.66;102898.22;5073634;28;20052;-78
2022/01/13 11:08:49;;;;;;;9.35;4.28;;;;;;;6.82;41.28;102892.69;5072432;28;20052;-78
2022/01/13 11:11:39;;;;;;;6.78;3.30;;;;;;;6.79;39.94;102899.41;5075580;28;20058;-79
2022/01/13 11:14:27;;;;;;;83.95;32.63;;;;;;;6.94;39.71;102893.50;5064729;28;20051;-78
2022/01/13 11:17:12;;;;;;;33.55;14.02;;;;;;;6.93;38.95;102891.84;5074880;28;20054;-76
2022/01/13 11:19:57;;;;;;;16.55;8.65;;;;;;;7.00;39.08;102895.25;5074784;28;20051;-76
2022/01/13 11:22:44;;;;;;;15.00;6.60;;;;;;;6.99;39.30;102887.38;5072864;28;20055;-76
2022/01/13 11:25:29;;;;;;;11.30;5.55;;;;;;;7.04;38.97;102884.78;5080253;28;20051;-76
2022/01/13 11:28:15;;;;;;;14.02;4.85;;;;;;;7.06;39.22;102879.97;5077740;28;20421;-77
2022/01/13 11:31:00;;;;;;;22.88;6.68;;;;;;;7.07;40.25;102879.69;5076574;28;20052;-77
2022/01/13 11:33:45;;;;;;;12.93;5.20;;;;;;;7.06;39.27;102875.34;5075197;28;20512;-77
2022/01/13 11:36:30;;;;;;;7.68;4.07;;;;;;;7.15;39.98;102876.66;5075855;28;20504;-77
2022/01/13 11:39:15;;;;;;;8.20;3.50;;;;;;;7.29;38.92;102867.19;5077587;28;20051;-77
2022/01/13 11:42:05;;;;;;;6.68;3.22;;;;;;;7.35;40.30;102870.81;5072984;28;20421;-77
2022/01/13 11:45:26;;;;;;;10.63;5.80;;;;;;;7.42;38.76;102866.06;5078974;28;20059;-77
2022/01/13 11:48:19;;;;;;;10.18;4.53;;;;;;;7.46;39.05;102859.13;5011740;28;20061;-77
2022/01/13 11:51:20;;;;;;;8.73;4.82;;;;;;;7.43;39.65;102856.88;5080004;28;20055;-76
2022/01/13 11:54:05;;;;;;;14.48;5.72;;;;;;;7.59;40.00;102866.94;5076651;28;20056;-77
2022/01/13 11:57:11;;;;;;;7.97;3.85;;;;;;;7.81;39.49;102853.53;5080423;28;20056;-76
2022/01/13 11:59:56;;;;;;;8.32;4.70;;;;;;;7.84;38.57;102863.06;5074342;28;20047;-77
2022/01/13 12:02:43;;;;;;;13.52;3.80;;;;;;;7.92;38.38;102865.38;5073311;28;20133;-77
2022/01/13 12:05:40;;;;;;;12.30;5.28;;;;;;;8.07;37.54;102865.66;5071990;28;20044;-77
2022/01/13 12:08:39;;;;;;;8.48;4.97;;;;;;;8.22;37.46;102868.59;5075103;28;20047;-77
2022/01/13 12:11:37;;;;;;;11.38;5.00;;;;;;;8.35;36.03;102872.88;5060060;28;20040;-76
2022/01/13 12:14:24;;;;;;;8.93;5.15;;;;;;;8.34;37.20;102879.38;5057513;28;20429;-77
2022/01/13 12:17:19;;;;;;;8.35;5.35;;;;;;;8.36;35.31;102875.34;5059185;28;20048;-79
2022/01/13 12:20:29;;;;;;;16.17;5.32;;;;;;;8.43;35.13;102872.50;5062511;28;20051;-79
2022/01/13 12:23:45;;;;;;;10.40;4.93;;;;;;;8.62;35.30;102868.44;5059167;28;20048;-79
2022/01/13 12:26:33;;;;;;;9.48;5.35;;;;;;;8.44;35.66;102864.09;5079544;28;20051;-80
2022/01/13 12:29:19;;;;;;;10.48;5.57;;;;;;;8.80;36.53;102864.59;5077649;28;20044;-79
2022/01/13 12:32:07;;;;;;;17.13;5.95;;;;;;;8.90;35.35;102859.31;5074262;28;20098;-79
2022/01/13 12:34:51;;;;;;;9.15;5.20;;;;;;;8.95;35.52;102849.34;5078592;28;20055;-80
2022/01/13 12:37:39;;;;;;;9.32;4.20;;;;;;;9.26;36.41;102844.28;5076225;28;20052;-80
2022/01/13 12:40:25;;;;;;;9.73;4.97;;;;;;;9.19;34.89;102844.50;5073859;28;20052;-80
2022/01/13 12:46:30;;;;;;;12.38;5.53;;;;;;;9.05;34.99;102837.78;5076113;28;20043;-78
2022/01/13 12:49:16;;;;;;;11.57;4.45;;;;;;;9.16;36.43;102845.00;5081720;28;20059;-79
2022/01/13 12:52:01;;;;;;;10.23;5.25;;;;;;;9.12;35.27;102846.59;5076981;28;20047;-79
2022/01/13 12:54:47;;;;;;;9.55;3.60;;;;;;;9.10;35.34;102843.28;5078932;28;20071;-79
2022/01/13 12:57:31;;;;;;;7.20;5.07;;;;;;;9.47;36.46;102839.91;5077607;28;20039;-79
2022/01/13 13:00:19;;;;;;;8.15;4.43;;;;;;;9.64;35.59;102841.47;5076118;28;20055;-80
2022/01/13 13:03:06;;;;;;;12.82;6.30;;;;;;;9.65;36.84;102842.28;5068358;28;20047;-80
2022/01/13 13:05:51;;;;;;;15.10;7.78;;;;;;;9.62;36.97;102835.47;5095434;28;20047;-79
2022/01/13 13:08:36;;;;;;;14.70;8.15;;;;;;;9.90;37.61;102837.09;5092709;28;20051;-77
2022/01/13 13:11:29;;;;;;;22.88;9.65;;;;;;;10.23;40.66;102836.84;5081005;28;20063;-78
2022/01/13 13:14:22;;;;;;;18.50;12.18;;;;;;;10.02;41.73;102835.00;5100860;28;20039;-79
2022/01/13 13:17:07;;;;;;;26.70;13.20;;;;;;;9.88;42.43;102837.34;5099409;28;20044;-84
2022/01/13 13:19:52;;;;;;;21.30;10.60;;;;;;;9.87;42.31;102830.25;5096901;28;20036;-82
2022/01/13 13:22:49;;;;;;;19.58;9.80;;;;;;;10.06;41.56;102832.56;5093328;28;20563;-81
2022/01/13 13:25:44;;;;;;;27.92;13.15;;;;;;;10.29;42.11;102824.09;5080410;28;20037;-79